Flight Track Log - Related Links

Times and Time Zones

All times are in EDT time to prevent confusion due to time zone crossing. See the UAL4335 flight status page for this flight to view local times or setup timezone preferences in your user account.


Time Position Orientation Groundspeed Altitude Reporting Facility
EDT Latitude Longitude Course Direction KTS MPH feet Rate Location/Type
Sun 07:36:48 AM 42.9500 -71.4167 295° West 165 190 1,000  Level KA90
Sun 07:37:12 AM 42.9667 -71.4167 360° North 184 212 1,900 2,154 Climbing KA90
Sun 07:38:06 AM 43.0167 -71.3833 26° Northeast 207 238 3,800 2,061 Climbing KA90
Sun 07:38:51 AM 43.0378 -71.4203 308° West 205 236 5,300 1,981 Climbing Boston Center
Sun 07:39:00 AM 42.9640 -71.7615 280° West  Level FlightAware Approximate
Sun 07:39:49 AM 43.0675 -71.4967 298° West 216 249 7,200  Level Boston Center
Sun 07:40:00 AM 42.9757 -71.8725 280° West  Level FlightAware Approximate
Sun 07:40:49 AM 43.1017 -71.5814 299° West 242 278 9,800  Level Boston Center
Sun 07:41:00 AM 42.9987 -71.9794 295° West  Level FlightAware Approximate
Sun 07:41:50 AM 43.1125 -71.6664 280° West 247 284 11,100  Level Boston Center
Sun 07:42:49 AM 43.0633 -71.7667 236° Southwest 247 284 12,200 1,424 Climbing Boston Center
Sun 07:43:48 AM 43.0178 -71.8494 233° Southwest 299 344 13,900 1,574 Climbing Boston Center
Sun 07:44:51 AM 42.9578 -71.9494 231° Southwest 310 357 15,400 1,041 Climbing Boston Center
Sun 07:45:49 AM 42.9103 -72.0375 234° Southwest 321 369 16,000 350 Climbing Boston Center
Sun 07:46:51 AM 42.8439 -72.1514 232° Southwest 340 391 16,100 50 Climbing Boston Center
Sun 07:47:49 AM 42.7919 -72.2419 232° Southwest 350 403 16,100  Level Boston Center
Sun 07:48:50 AM 42.7339 -72.3439 232° Southwest 350 403 16,100  Level Boston Center
Sun 07:49:49 AM 42.6756 -72.4458 232° Southwest 350 403 16,100  Level Boston Center
Sun 07:50:48 AM 42.6172 -72.5472 232° Southwest 350 403 16,100  Level Boston Center
Sun 07:51:50 AM 42.5544 -72.6486 230° Southwest 350 403 16,100  Level Boston Center
Sun 07:52:51 AM 42.4939 -72.7525 232° Southwest 350 403 16,100  Level Boston Center
Sun 07:53:50 AM 42.4247 -72.8675 231° Southwest 350 403 16,100  Level Boston Center
Sun 07:54:51 AM 42.3575 -72.9683 228° Southwest 356 410 16,100  Level Boston Center
Sun 07:55:50 AM 42.2903 -73.0631 226° Southwest 356 410 16,100  Level Boston Center
Sun 07:56:48 AM 42.2211 -73.1578 225° Southwest 356 410 16,100  Level Boston Center
Sun 07:57:49 AM 42.1536 -73.2550 227° Southwest 356 410 16,100  Level Boston Center
Sun 07:58:49 AM 42.0947 -73.3411 227° Southwest 356 410 16,100  Level Boston Center
Sun 07:59:51 AM 42.0186 -73.4433 225° Southwest 351 404 16,100  Level Boston Center
Sun 08:00:51 AM 41.9514 -73.5231 221° Southwest 351 404 16,100  Level Boston Center
Sun 08:01:51 AM 41.8669 -73.6219 221° Southwest 365 420 16,100 -550 Level Boston Center
Sun 08:02:51 AM 41.8017 -73.6961 220° Southwest 365 420 15,000 -1,678 Descending Boston Center
Sun 08:03:49 AM 41.7211 -73.7919 222° Southwest 365 420 12,800 -2,000 Descending Boston Center
Sun 08:04:48 AM 41.6600 -73.8656 222° Southwest 347 399 11,100 -1,438 Descending Boston Center
Sun 08:05:50 AM 41.5964 -73.9364 220° Southwest 301 346 9,900 -1,488 Descending Boston Center
Sun 08:06:49 AM 41.5497 -73.9906 221° Southwest 256 295 8,100 -1,192 Descending Boston Center
Sun 08:08:16 AM 41.4667 -74.0667 214° Southwest 229 264 7,000 -449 Descending New York TRACON
Sun 08:09:16 AM 41.4167 -74.1333 225° Southwest 242 278 7,000  Level New York TRACON
Sun 08:10:22 AM 41.3667 -74.2000 225° Southwest 239 275 7,000  Level New York TRACON
Sun 08:11:22 AM 41.3167 -74.2500 217° Southwest 249 287 7,000 -450 Level New York TRACON
Sun 08:12:22 AM 41.2333 -74.2333 171° South 254 292 6,100 -952 Descending New York TRACON
Sun 08:13:28 AM 41.1667 -74.2333 180° South 257 296 5,000 -545 Descending New York TRACON
Sun 08:14:23 AM 41.1000 -74.2000 159° South 264 304 5,000 -939 Level New York TRACON
Sun 08:15:23 AM 41.0333 -74.1667 159° South 254 292 3,200 -952 Descending New York TRACON
Sun 08:16:29 AM 40.9667 -74.1167 150° Southeast 257 296 3,000 -95 Descending New York TRACON
Sun 08:17:29 AM 40.9000 -74.0833 159° South 254 292 3,000  Level New York TRACON

Login

Don't have an account? Register now (free) for customized features, flight alerts, and more!